ěÝzenÝ letovÚho provozu ╚eskÚ republiky
Letiste: LKCV Aktualizace: 26.09.2022 14:29:32  UTC
 METAR LKCV 26.09. 14:30 ...
METAR LKCV 261430Z 23005KT 200V270 9999 FEW030 SCT080 16/10 Q1005 NOSIG RMK BLU BLU=
 TAF LKCV 26.09. 11:00 ...
TAF LKCV 261100Z 2612/2712 28008KT 9999 BKN035      PROB30 TEMPO 2612/2615 7000 SHRA BKN020      TEMPO 2615/2700 CAVOK      BECMG 2616/2618 19007KT      TEMPO 2702/2712 5000 RADZ BKN013      BECMG 2709/2711 24010KT=